Time;durP1;ratioP1;P1;durP2;ratioP2;P2;SDS_P1;SDS_P2;PMS_P1;PMS_P2;Temp;Humidity;BMP_temperature;BMP_pressure;BME280_temperature;BME280_humidity;BME280_pressure;Samples;Min_cycle;Max_cycle;Signal;HPM_P1;HPM_P2
2022/01/15 00:00:18;;;;;;;98.00;56.95;;;5.30;99.90;;;;;;5092265;28;20384;-79
2022/01/15 00:02:44;;;;;;;100.10;58.35;;;5.30;99.90;;;;;;5092566;28;20032;-79
2022/01/15 00:05:10;;;;;;;97.68;58.42;;;5.40;99.90;;;;;;5093034;28;20562;-77
2022/01/15 00:07:36;;;;;;;104.05;58.33;;;5.60;99.90;;;;;;5093340;28;20032;-79
2022/01/15 00:10:03;;;;;;;100.85;57.83;;;5.60;99.90;;;;;;5093291;28;20147;-79
2022/01/15 00:12:36;;;;;;;99.32;58.30;;;5.50;99.90;;;;;;5093376;28;20519;-79
2022/01/15 00:15:02;;;;;;;98.93;58.65;;;5.40;99.90;;;;;;5093278;28;20078;-79
2022/01/15 00:17:46;;;;;;;98.22;56.60;;;5.30;99.90;;;;;;5093013;28;20020;-80
2022/01/15 00:20:16;;;;;;;101.75;55.25;;;5.10;99.90;;;;;;5092170;28;20103;-79
2022/01/15 00:22:43;;;;;;;100.15;56.08;;;5.10;99.90;;;;;;5093298;28;20055;-79
2022/01/15 00:25:09;;;;;;;92.88;54.50;;;5.10;99.90;;;;;;5093101;28;20069;-79
2022/01/15 00:27:35;;;;;;;92.55;53.22;;;5.20;99.90;;;;;;5093052;28;20445;-79
2022/01/15 00:30:03;;;;;;;96.88;54.55;;;5.10;99.90;;;;;;5091491;28;20118;-77
2022/01/15 00:32:29;;;;;;;97.13;54.03;;;4.90;99.90;;;;;;5092877;28;20037;-79
2022/01/15 00:34:54;;;;;;;101.60;55.30;;;5.00;99.90;;;;;;5074731;28;20026;-79
2022/01/15 00:37:20;;;;;;;103.57;56.67;;;4.90;99.90;;;;;;5093000;28;20028;-79
2022/01/15 00:39:46;;;;;;;100.22;55.50;;;5.00;99.90;;;;;;5092858;28;20050;-79
2022/01/15 00:42:12;;;;;;;99.75;56.45;;;5.10;99.90;;;;;;5092825;28;20051;-79
2022/01/15 00:44:41;;;;;;;102.22;56.20;;;5.30;99.90;;;;;;5092908;28;20036;-79
2022/01/15 00:47:06;;;;;;;111.43;58.83;;;5.40;99.90;;;;;;5092857;28;20104;-79
2022/01/15 00:49:32;;;;;;;105.80;56.30;;;5.30;99.90;;;;;;5091406;28;20016;-78
2022/01/15 00:51:58;;;;;;;111.20;58.25;;;5.30;99.90;;;;;;5092835;28;20050;-80
2022/01/15 00:54:23;;;;;;;101.32;57.53;;;5.40;99.90;;;;;;5092689;28;20016;-79
2022/01/15 00:56:49;;;;;;;104.43;57.03;;;5.50;99.90;;;;;;5091492;28;20468;-79
2022/01/15 00:59:18;;;;;;;103.22;56.40;;;5.70;99.90;;;;;;5092765;28;20088;-78
2022/01/15 01:01:44;;;;;;;104.97;56.90;;;5.50;99.90;;;;;;5092873;28;20488;-79
2022/01/15 01:04:10;;;;;;;106.25;56.00;;;5.50;99.90;;;;;;5092427;28;20095;-79
2022/01/15 01:06:36;;;;;;;101.22;54.55;;;5.30;99.90;;;;;;5092578;28;20139;-79
2022/01/15 01:09:02;;;;;;;105.97;56.85;;;5.40;99.90;;;;;;5092719;28;20068;-79
2022/01/15 01:11:43;;;;;;;109.20;58.22;;;5.30;99.90;;;;;;5091170;28;20024;-79
2022/01/15 01:22:41;;;;;;;105.35;55.45;;;5.20;99.90;;;;;;5092600;28;20107;-79
2022/01/15 01:25:01;;;;;;;108.68;55.60;;;5.30;99.90;;;;;;5092369;28;20431;-79
2022/01/15 01:27:41;;;;;;;109.22;55.92;;;5.30;99.90;;;;;;5092161;28;20042;-79
2022/01/15 01:30:21;;;;;;;113.30;57.05;;;5.40;99.90;;;;;;5091092;28;20506;-78
2022/01/15 01:32:58;;;;;;;107.97;54.65;;;5.40;99.90;;;;;;5095815;28;20043;-79
2022/01/15 01:35:41;;;;;;;116.00;57.50;;;5.30;99.90;;;;;;5096132;28;20015;-78
2022/01/15 01:38:33;;;;;;;108.25;57.40;;;5.40;99.90;;;;;;5096238;28;20039;-76
2022/01/15 01:40:53;;;;;;;112.93;56.22;;;5.40;99.90;;;;;;5089897;28;20075;-79
2022/01/15 01:45:53;;;;;;;108.10;54.67;;;5.40;99.90;;;;;;5075275;28;20036;-79
2022/01/15 01:48:19;;;;;;;;;;;5.40;99.90;;;;;;5074710;28;20036;-78
2022/01/15 01:50:45;;;;;;;116.43;55.53;;;5.40;99.90;;;;;;5075369;28;19957;-79
2022/01/15 01:53:10;;;;;;;110.90;54.55;;;5.30;99.90;;;;;;5075679;28;20025;-78
2022/01/15 01:55:37;;;;;;;120.35;56.17;;;5.00;99.90;;;;;;5075483;28;20063;-79
2022/01/15 01:58:03;;;;;;;116.45;54.70;;;4.90;99.90;;;;;;5075652;28;20159;-79
2022/01/15 02:00:31;;;;;;;125.30;57.15;;;4.90;99.90;;;;;;5074242;28;20032;-79
2022/01/15 02:02:57;;;;;;;118.07;55.55;;;5.20;99.90;;;;;;5075281;28;20044;-79
2022/01/15 02:05:23;;;;;;;124.20;57.80;;;5.00;99.90;;;;;;5075378;28;20025;-78
2022/01/15 02:07:49;;;;;;;118.78;54.83;;;4.70;99.90;;;;;;5075074;28;20503;-78
2022/01/15 02:10:18;;;;;;;125.72;56.47;;;4.60;99.90;;;;;;5088150;28;20020;-79
2022/01/15 02:12:47;;;;;;;116.13;54.13;;;4.90;99.90;;;;;;5095371;28;20060;-79
2022/01/15 02:15:15;;;;;;;132.13;57.20;;;4.90;99.90;;;;;;5095483;28;20028;-79
2022/01/15 02:17:43;;;;;;;126.35;58.53;;;4.80;99.90;;;;;;5095087;28;20537;-80
2022/01/15 02:25:48;;;;;;;130.07;57.40;;;4.80;99.90;;;;;;5094933;28;20028;-79
2022/01/15 02:28:15;;;;;;;149.68;60.50;;;4.50;99.90;;;;;;5095305;28;20093;-80
2022/01/15 02:30:41;;;;;;;132.90;58.75;;;4.40;99.90;;;;;;5094611;28;20507;-79
2022/01/15 02:33:07;;;;;;;137.20;59.78;;;4.50;99.90;;;;;;5095057;28;20056;-78
2022/01/15 02:35:34;;;;;;;133.75;59.65;;;4.50;99.90;;;;;;5095070;28;20081;-79
2022/01/15 02:38:04;;;;;;;129.18;59.60;;;4.50;99.90;;;;;;5094941;28;20103;-79
2022/01/15 02:40:33;;;;;;;131.52;58.63;;;4.40;99.90;;;;;;5093868;28;20392;-79
2022/01/15 02:43:05;;;;;;;131.35;58.28;;;4.50;99.90;;;;;;5094409;28;20016;-78
2022/01/15 02:45:34;;;;;;;135.55;60.58;;;4.70;99.90;;;;;;5093325;28;20495;-79
2022/01/15 02:48:09;;;;;;;127.40;59.20;;;4.70;99.90;;;;;;5094854;28;20086;-79
2022/01/15 02:50:35;;;;;;;120.78;56.83;;;4.70;99.90;;;;;;5094841;28;20031;-78
2022/01/15 02:53:03;;;;;;;128.25;60.10;;;4.50;99.90;;;;;;5094778;28;20494;-78
2022/01/15 02:55:29;;;;;;;124.95;58.47;;;4.40;99.90;;;;;;5094686;28;20418;-79
2022/01/15 02:57:55;;;;;;;128.15;60.45;;;4.30;99.90;;;;;;5094550;28;20097;-79
2022/01/15 03:00:22;;;;;;;125.78;57.50;;;4.20;99.90;;;;;;5094317;28;20043;-79
2022/01/15 03:02:48;;;;;;;107.35;53.80;;;4.10;99.90;;;;;;5094507;28;20039;-78
2022/01/15 03:05:14;;;;;;;107.75;54.67;;;4.20;99.90;;;;;;5093579;28;20023;-78
2022/01/15 03:07:39;;;;;;;110.95;54.72;;;4.40;99.90;;;;;;5096028;28;20123;-79
2022/01/15 03:10:05;;;;;;;110.05;55.90;;;4.50;99.90;;;;;;5094368;28;20024;-79
2022/01/15 03:12:31;;;;;;;106.70;53.13;;;4.50;99.90;;;;;;5094395;28;20032;-79
2022/01/15 03:15:01;;;;;;;93.72;49.00;;;4.50;99.90;;;;;;5093937;28;20105;-79
2022/01/15 03:17:27;;;;;;;90.55;47.45;;;4.40;99.90;;;;;;5094202;28;20047;-79
2022/01/15 03:19:53;;;;;;;109.15;53.22;;;4.20;99.90;;;;;;5094127;28;20528;-79
2022/01/15 03:22:19;;;;;;;95.28;49.70;;;4.20;99.90;;;;;;5094084;28;20069;-79
2022/01/15 03:24:45;;;;;;;102.05;51.70;;;4.20;99.90;;;;;;5094205;28;20073;-79
2022/01/15 03:27:11;;;;;;;103.90;53.45;;;4.00;99.90;;;;;;5092718;28;20072;-79
2022/01/15 03:29:36;;;;;;;100.18;50.40;;;4.10;99.90;;;;;;5093564;28;20051;-78
2022/01/15 03:32:03;;;;;;;99.50;49.63;;;4.00;99.90;;;;;;5093787;28;20036;-79
2022/01/15 03:34:28;;;;;;;99.03;51.92;;;4.10;99.90;;;;;;5093987;28;20543;-79
2022/01/15 03:36:54;;;;;;;98.88;51.75;;;4.20;99.90;;;;;;5093930;28;20107;-79
2022/01/15 03:39:19;;;;;;;101.50;52.22;;;4.30;99.90;;;;;;5093862;28;20051;-78
2022/01/15 03:41:45;;;;;;;102.72;50.28;;;4.20;99.90;;;;;;5093776;28;20046;-78
2022/01/15 03:44:11;;;;;;;104.82;53.33;;;4.30;99.90;;;;;;5093250;28;20387;-79
2022/01/15 03:46:37;;;;;;;100.93;54.72;;;4.30;99.90;;;;;;5093939;28;20051;-79
2022/01/15 03:49:03;;;;;;;103.80;54.47;;;4.40;99.90;;;;;;5093586;28;20095;-79
2022/01/15 03:51:28;;;;;;;111.05;54.42;;;4.60;99.90;;;;;;5093556;28;20047;-79
2022/01/15 03:53:54;;;;;;;100.18;52.53;;;4.50;99.90;;;;;;5091515;28;20385;-78
2022/01/15 03:56:20;;;;;;;95.38;48.72;;;4.50;99.90;;;;;;5093567;28;20024;-78
2022/01/15 03:58:45;;;;;;;96.00;49.88;;;4.50;99.90;;;;;;5093417;28;20392;-79
2022/01/15 04:01:11;;;;;;;100.78;50.28;;;4.30;99.90;;;;;;5093504;28;20028;-78
2022/01/15 04:03:38;;;;;;;103.00;50.03;;;4.20;99.90;;;;;;5093543;28;20028;-78
2022/01/15 04:06:04;;;;;;;109.10;55.70;;;4.10;99.90;;;;;;5093362;28;20039;-78
2022/01/15 04:08:30;;;;;;;107.63;54.00;;;4.10;99.90;;;;;;5093357;28;20024;-78
2022/01/15 04:10:56;;;;;;;107.68;55.58;;;4.20;99.90;;;;;;5093928;28;20484;-79
2022/01/15 04:13:21;;;;;;;101.80;52.40;;;4.30;99.90;;;;;;5093206;28;20036;-76
2022/01/15 04:15:52;;;;;;;119.10;55.35;;;4.20;99.90;;;;;;5093626;28;20046;-77
2022/01/15 04:18:21;;;;;;;116.83;56.43;;;4.00;99.90;;;;;;5075371;28;20035;-78
2022/01/15 04:20:47;;;;;;;109.65;54.72;;;4.10;99.90;;;;;;5093032;28;20369;-78
2022/01/15 04:23:13;;;;;;;99.43;50.35;;;4.10;99.90;;;;;;5093160;28;20024;-79
2022/01/15 04:25:39;;;;;;;104.50;56.13;;;4.10;99.90;;;;;;5093011;28;20081;-78
2022/01/15 04:28:09;;;;;;;108.22;54.40;;;4.10;99.90;;;;;;5091486;28;20035;-78
2022/01/15 04:30:37;;;;;;;113.90;56.30;;;4.30;99.90;;;;;;5093107;28;20103;-79
2022/01/15 04:33:02;;;;;;;122.55;57.75;;;4.20;99.90;;;;;;5093122;28;20078;-78
2022/01/15 04:35:28;;;;;;;116.72;56.90;;;4.30;99.90;;;;;;5093098;28;20358;-79
2022/01/15 04:38:01;;;;;;;112.35;54.78;;;4.20;99.90;;;;;;5092958;28;20540;-78
2022/01/15 04:40:27;;;;;;;115.60;53.60;;;4.10;99.90;;;;;;5092747;28;20468;-79
2022/01/15 04:42:53;;;;;;;111.70;55.58;;;4.00;99.90;;;;;;5092815;28;20088;-79
2022/01/15 04:45:18;;;;;;;111.28;54.55;;;4.10;99.90;;;;;;5091592;28;20020;-78
2022/01/15 04:47:44;;;;;;;112.78;53.15;;;4.00;99.90;;;;;;5086776;28;20420;-79
2022/01/15 04:50:16;;;;;;;117.38;59.80;;;3.90;99.90;;;;;;5081273;28;20052;-79
2022/01/15 04:52:42;;;;;;;117.20;56.00;;;3.90;99.90;;;;;;5071536;28;20094;-79
2022/01/15 04:55:09;;;;;;;126.38;58.22;;;3.90;99.90;;;;;;5072465;28;20024;-78
2022/01/15 04:57:35;;;;;;;120.57;56.13;;;3.80;99.90;;;;;;5072919;28;20063;-78
2022/01/15 05:00:03;;;;;;;122.40;58.78;;;3.70;99.90;;;;;;5072394;28;20021;-79
2022/01/15 05:02:29;;;;;;;134.50;61.97;;;3.80;99.90;;;;;;5072450;28;20021;-78
2022/01/15 05:04:54;;;;;;;126.93;60.67;;;3.90;99.90;;;;;;5072790;28;20036;-76
2022/01/15 05:07:22;;;;;;;140.95;62.53;;;4.10;99.90;;;;;;5058395;28;20090;-77
2022/01/15 05:09:47;;;;;;;134.95;63.65;;;4.30;99.90;;;;;;5084625;28;20023;-79
2022/01/15 05:14:48;;;;;;;138.52;62.03;;;4.30;99.90;;;;;;5096498;28;20383;-78
2022/01/15 05:17:13;;;;;;;143.25;62.67;;;4.30;99.90;;;;;;5096524;28;20099;-79
2022/01/15 05:19:39;;;;;;;127.50;61.40;;;4.60;99.90;;;;;;5095179;28;20407;-78
2022/01/15 05:22:05;;;;;;;131.82;62.25;;;4.60;99.90;;;;;;5096260;28;20091;-78
2022/01/15 05:24:31;;;;;;;138.25;63.35;;;4.70;99.90;;;;;;5096207;28;20028;-79
2022/01/15 05:26:57;;;;;;;129.85;59.05;;;4.60;99.90;;;;;;5096077;28;20113;-78
2022/01/15 05:29:23;;;;;;;136.48;61.53;;;4.70;99.90;;;;;;5096321;28;20028;-78
2022/01/15 05:31:49;;;;;;;132.68;60.55;;;4.70;99.90;;;;;;5096228;28;20388;-78
2022/01/15 05:34:15;;;;;;;126.60;59.45;;;4.80;99.90;;;;;;5096185;28;20017;-79
2022/01/15 05:36:41;;;;;;;125.35;59.22;;;4.80;99.90;;;;;;5096238;28;20036;-79
2022/01/15 05:39:07;;;;;;;129.70;58.10;;;4.20;99.90;;;;;;5095831;28;20024;-80
2022/01/15 05:41:33;;;;;;;127.10;52.90;;;3.80;99.90;;;;;;5096077;28;20052;-80
2022/01/15 05:44:01;;;;;;;125.50;57.38;;;3.60;99.90;;;;;;5096552;28;20031;-77
2022/01/15 05:46:32;;;;;;;121.55;54.65;;;3.60;99.90;;;;;;5095978;28;20043;-78
2022/01/15 05:48:58;;;;;;;122.82;55.55;;;3.60;99.90;;;;;;5096143;28;20112;-79
2022/01/15 05:51:29;;;;;;;134.50;58.20;;;3.50;99.90;;;;;;5095750;28;20035;-79
2022/01/15 05:53:55;;;;;;;126.10;57.43;;;3.60;99.90;;;;;;5095695;28;20061;-79
2022/01/15 05:56:21;;;;;;;121.55;57.85;;;3.60;99.90;;;;;;5095965;28;20031;-79
2022/01/15 05:58:46;;;;;;;115.50;52.28;;;3.60;99.90;;;;;;5095897;28;20111;-79
2022/01/15 06:01:12;;;;;;;120.90;55.17;;;3.50;99.90;;;;;;5095613;28;20055;-79
2022/01/15 06:03:38;;;;;;;107.95;51.65;;;3.70;99.90;;;;;;5095676;28;20021;-79
2022/01/15 06:06:04;;;;;;;108.90;53.85;;;3.70;99.90;;;;;;5095375;28;20399;-78
2022/01/15 06:08:29;;;;;;;107.28;51.72;;;3.70;99.90;;;;;;5095512;28;20385;-78
2022/01/15 06:10:55;;;;;;;109.15;53.05;;;3.70;99.90;;;;;;5095262;28;20021;-78
2022/01/15 06:13:20;;;;;;;114.85;54.03;;;3.80;99.90;;;;;;5095595;28;20039;-79
2022/01/15 06:15:46;;;;;;;107.13;53.95;;;3.90;99.90;;;;;;5095398;28;20043;-79
2022/01/15 06:18:12;;;;;;;115.97;53.28;;;3.90;99.90;;;;;;5094694;28;20095;-79
2022/01/15 06:20:37;;;;;;;99.82;51.65;;;3.70;99.90;;;;;;5095197;28;20043;-79
2022/01/15 06:23:03;;;;;;;119.68;54.97;;;3.50;99.90;;;;;;5095089;28;20066;-79
2022/01/15 06:25:29;;;;;;;115.18;55.58;;;3.50;99.90;;;;;;5093987;28;20020;-79
2022/01/15 06:27:55;;;;;;;105.18;53.05;;;3.50;99.90;;;;;;5093837;28;20114;-78
2022/01/15 06:30:20;;;;;;;109.75;54.25;;;3.50;99.90;;;;;;5095070;28;20085;-79
2022/01/15 06:32:46;;;;;;;112.97;56.03;;;3.50;99.90;;;;;;5095016;28;20059;-79
2022/01/15 06:35:13;;;;;;;116.32;54.35;;;3.50;99.90;;;;;;5095240;28;20024;-78
2022/01/15 06:37:40;;;;;;;116.68;56.25;;;3.40;99.90;;;;;;5094740;28;20066;-78
2022/01/15 06:40:07;;;;;;;118.53;55.90;;;3.40;99.90;;;;;;5094909;28;20016;-78
2022/01/15 06:42:33;;;;;;;128.60;57.42;;;3.40;99.90;;;;;;5094843;28;20031;-78
2022/01/15 06:44:59;;;;;;;120.25;54.90;;;3.40;99.90;;;;;;5093717;28;20024;-78
2022/01/15 06:47:25;;;;;;;124.32;56.13;;;3.40;99.90;;;;;;5094676;28;20043;-79
2022/01/15 06:49:51;;;;;;;122.88;56.50;;;3.30;99.90;;;;;;5094751;28;20115;-78
2022/01/15 06:52:17;;;;;;;116.22;57.20;;;3.30;99.90;;;;;;5094452;28;20075;-79
2022/01/15 06:54:42;;;;;;;127.13;60.00;;;3.40;99.90;;;;;;5094748;28;20047;-79
2022/01/15 06:57:08;;;;;;;128.50;56.17;;;3.50;99.90;;;;;;5094607;28;20495;-78
2022/01/15 06:59:34;;;;;;;131.27;58.28;;;3.40;99.90;;;;;;5094497;28;20020;-78
2022/01/15 07:01:59;;;;;;;128.77;55.90;;;3.50;99.90;;;;;;5094539;28;20480;-77
2022/01/15 07:04:25;;;;;;;130.88;57.75;;;3.50;99.90;;;;;;5094413;28;20028;-76
2022/01/15 07:06:51;;;;;;;131.43;57.15;;;3.60;99.90;;;;;;5092878;28;20047;-78
2022/01/15 07:09:16;;;;;;;133.75;58.53;;;3.50;99.90;;;;;;5094173;28;20032;-79
2022/01/15 07:11:42;;;;;;;130.68;58.72;;;3.50;99.90;;;;;;5093423;28;20134;-78
2022/01/15 07:14:08;;;;;;;135.05;59.30;;;3.50;99.90;;;;;;5092774;28;20020;-77
2022/01/15 07:16:34;;;;;;;121.32;56.80;;;3.70;99.90;;;;;;5094389;28;20388;-77
2022/01/15 07:19:00;;;;;;;132.75;58.08;;;3.60;99.90;;;;;;5094111;28;20025;-78
2022/01/15 07:21:26;;;;;;;130.57;57.50;;;3.80;99.90;;;;;;5093864;28;20570;-79
2022/01/15 07:23:52;;;;;;;133.68;57.75;;;3.80;99.90;;;;;;5094067;28;20024;-72
2022/01/15 07:26:18;;;;;;;138.07;59.85;;;3.80;99.90;;;;;;5093830;28;20028;-77
2022/01/15 07:28:43;;;;;;;134.02;59.88;;;3.70;99.90;;;;;;5092892;28;20042;-78
2022/01/15 07:31:09;;;;;;;122.13;57.67;;;3.70;99.90;;;;;;5093925;28;20016;-79
2022/01/15 07:33:34;;;;;;;126.50;57.78;;;3.70;99.90;;;;;;5093771;28;20115;-78
2022/01/15 07:36:00;;;;;;;131.80;56.88;;;3.70;99.90;;;;;;5093688;28;20097;-80
2022/01/15 07:38:26;;;;;;;137.70;59.55;;;3.90;99.90;;;;;;5093774;28;20024;-81
2022/01/15 07:40:57;;;;;;;134.50;58.20;;;3.90;99.90;;;;;;5093996;28;20043;-80
2022/01/15 07:43:24;;;;;;;137.80;59.40;;;3.90;99.90;;;;;;5093590;28;20100;-79
2022/01/15 07:45:50;;;;;;;125.15;55.33;;;3.80;99.90;;;;;;5093582;28;20468;-80
2022/01/15 07:48:16;;;;;;;128.68;56.33;;;3.80;99.90;;;;;;5093699;28;20031;-79
2022/01/15 07:50:42;;;;;;;136.25;58.20;;;4.00;99.90;;;;;;5093842;28;20024;-79
2022/01/15 07:53:07;;;;;;;117.25;55.45;;;4.00;99.90;;;;;;5093369;28;20563;-79
2022/01/15 07:55:33;;;;;;;133.98;57.15;;;4.10;99.90;;;;;;5093556;28;20032;-79
2022/01/15 07:57:59;;;;;;;132.00;57.00;;;4.30;99.90;;;;;;5093603;28;20472;-80
2022/01/15 08:00:26;;;;;;;124.15;52.50;;;4.30;99.90;;;;;;5093337;28;20035;-80
2022/01/15 08:02:51;;;;;;;125.45;53.22;;;4.30;99.90;;;;;;5093566;28;20120;-79
2022/01/15 08:05:17;;;;;;;132.25;56.10;;;4.20;99.90;;;;;;5092980;28;20095;-77
2022/01/15 08:07:44;;;;;;;130.68;58.33;;;4.20;99.90;;;;;;5093139;28;20178;-79
2022/01/15 08:10:10;;;;;;;126.63;54.58;;;4.30;99.90;;;;;;5093012;28;20032;-80
2022/01/15 08:12:49;;;;;;;130.07;54.20;;;4.00;99.90;;;;;;5093386;28;20027;-79
2022/01/15 08:15:17;;;;;;;126.38;52.33;;;4.00;99.90;;;;;;5093073;28;20542;-80
2022/01/15 08:17:42;;;;;;;130.65;52.95;;;3.90;99.90;;;;;;5093161;28;20498;-79
2022/01/15 08:20:09;;;;;;;117.65;51.33;;;4.00;99.90;;;;;;5092646;28;20075;-80
2022/01/15 08:22:35;;;;;;;137.02;54.42;;;4.00;99.90;;;;;;5091989;28;20476;-80
2022/01/15 08:25:02;;;;;;;120.60;49.47;;;4.00;99.90;;;;;;5092960;28;20024;-78
2022/01/15 08:27:27;;;;;;;119.40;47.40;;;3.90;99.90;;;;;;5093077;28;20058;-80
2022/01/15 08:29:53;;;;;;;124.75;50.85;;;3.90;99.90;;;;;;5092882;28;20020;-80
2022/01/15 08:32:19;;;;;;;122.68;48.53;;;4.10;99.90;;;;;;5093156;28;20540;-79
2022/01/15 08:34:44;;;;;;;141.38;53.03;;;4.00;99.90;;;;;;5092443;28;20024;-78
2022/01/15 08:37:10;;;;;;;124.75;48.03;;;4.00;99.90;;;;;;5093171;28;20531;-79
2022/01/15 08:39:36;;;;;;;123.15;47.88;;;3.90;99.90;;;;;;5092422;28;20096;-79
2022/01/15 08:42:05;;;;;;;137.68;51.63;;;3.70;99.90;;;;;;5092902;28;20020;-78
2022/01/15 08:44:31;;;;;;;142.25;54.08;;;3.60;99.90;;;;;;5092866;28;20464;-79
2022/01/15 08:46:57;;;;;;;135.18;52.40;;;3.70;99.90;;;;;;5092713;28;20043;-79
2022/01/15 08:49:23;;;;;;;139.98;51.80;;;3.70;99.90;;;;;;5092423;28;20420;-80
2022/01/15 08:51:48;;;;;;;139.43;53.15;;;3.80;99.90;;;;;;5092783;28;20028;-79
2022/01/15 08:54:14;;;;;;;122.85;50.90;;;3.80;99.90;;;;;;5092882;28;20463;-80
2022/01/15 08:56:40;;;;;;;136.52;49.70;;;3.60;99.90;;;;;;5092529;28;20028;-75
2022/01/15 08:59:05;;;;;;;132.23;50.22;;;3.50;99.90;;;;;;5092881;28;20064;-79
2022/01/15 09:01:32;;;;;;;134.80;49.80;;;3.50;99.90;;;;;;5092778;28;20078;-80
2022/01/15 09:03:58;;;;;;;132.73;47.30;;;3.30;99.90;;;;;;5092616;28;20032;-80
2022/01/15 09:06:25;;;;;;;130.95;48.58;;;3.40;99.90;;;;;;5092495;28;20108;-80
2022/01/15 09:08:51;;;;;;;125.95;47.65;;;3.40;99.90;;;;;;5092467;28;20077;-78
2022/01/15 09:11:16;;;;;;;119.90;43.22;;;3.30;99.90;;;;;;5092679;28;20051;-79
2022/01/15 09:13:43;;;;;;;135.85;48.85;;;3.10;99.90;;;;;;5092669;28;20020;-78
2022/01/15 09:16:09;;;;;;;136.23;48.60;;;3.10;99.90;;;;;;5092293;28;20043;-79
2022/01/15 09:18:35;;;;;;;125.47;45.63;;;3.20;99.90;;;;;;5092507;28;20020;-79
2022/01/15 09:21:02;;;;;;;118.40;44.08;;;3.00;99.90;;;;;;5092313;28;20036;-79
2022/01/15 09:23:28;;;;;;;117.45;44.92;;;3.10;99.90;;;;;;5091434;28;20027;-79
2022/01/15 09:25:53;;;;;;;136.00;46.78;;;3.10;99.90;;;;;;5092139;28;20027;-80
2022/01/15 09:31:03;;;;;;;138.63;46.38;;;3.10;99.90;;;;;;5092113;28;20036;-80
2022/01/15 09:33:29;;;;;;;123.40;45.28;;;3.00;99.90;;;;;;5092459;28;20023;-79
2022/01/15 09:35:55;;;;;;;136.02;50.70;;;3.00;99.90;;;;;;5092349;28;20376;-79
2022/01/15 09:38:21;;;;;;;139.60;50.72;;;3.30;99.90;;;;;;5091331;28;20020;-79
2022/01/15 09:40:47;;;;;;;139.60;49.67;;;3.30;99.90;;;;;;5092209;28;20032;-79
2022/01/15 09:43:15;;;;;;;146.73;50.42;;;3.40;99.90;;;;;;5091271;28;20036;-79
2022/01/15 09:45:42;;;;;;;141.15;49.90;;;3.60;99.90;;;;;;5092159;28;20028;-80
2022/01/15 09:48:08;;;;;;;140.73;47.35;;;3.60;99.90;;;;;;5091011;28;20050;-79
2022/01/15 09:50:42;;;;;;;130.30;48.30;;;3.50;99.90;;;;;;5092387;28;20115;-80
2022/01/15 09:53:10;;;;;;;144.20;48.53;;;3.60;99.90;;;;;;5094706;28;20047;-79
2022/01/15 09:55:37;;;;;;;132.02;47.75;;;3.50;99.90;;;;;;5095929;28;20411;-79
2022/01/15 09:58:03;;;;;;;125.00;45.38;;;3.60;99.90;;;;;;5094560;28;20035;-80
2022/01/15 10:00:30;;;;;;;127.50;46.08;;;3.60;99.90;;;;;;5095399;28;20122;-80
2022/01/15 10:02:56;;;;;;;130.07;49.65;;;3.60;99.90;;;;;;5095611;28;20024;-79
2022/01/15 10:05:23;;;;;;;105.68;42.90;;;3.60;99.90;;;;;;5095597;28;20464;-79
2022/01/15 10:07:58;;;;;;;110.00;41.10;;;3.50;99.90;;;;;;5095374;28;20032;-80
2022/01/15 10:10:25;;;;;;;111.82;42.38;;;3.40;99.90;;;;;;5095506;28;20115;-79
2022/01/15 10:12:51;;;;;;;125.13;43.22;;;3.30;99.90;;;;;;5095434;28;20419;-79
2022/01/15 10:15:19;;;;;;;119.78;42.38;;;3.40;99.90;;;;;;5095397;28;20032;-80
2022/01/15 10:17:44;;;;;;;121.75;43.28;;;3.40;99.90;;;;;;5095630;28;20020;-79
2022/01/15 10:20:12;;;;;;;122.47;41.95;;;3.50;99.90;;;;;;5095166;28;20506;-79
2022/01/15 10:22:46;;;;;;;133.93;45.83;;;3.50;99.90;;;;;;5095115;28;20024;-79
2022/01/15 10:25:18;;;;;;;133.68;43.58;;;3.70;99.90;;;;;;5093999;28;20050;-79
2022/01/15 10:27:52;;;;;;;122.90;46.63;;;3.80;99.90;;;;;;5094707;28;20480;-79
2022/01/15 10:30:27;;;;;;;126.03;46.08;;;4.00;99.90;;;;;;5095068;28;20028;-79
2022/01/15 10:33:04;;;;;;;125.45;43.45;;;4.20;99.90;;;;;;5094901;28;20436;-80
2022/01/15 10:35:41;;;;;;;134.60;47.75;;;4.40;99.90;;;;;;5094921;28;20384;-78
2022/01/15 10:38:15;;;;;;;134.30;47.28;;;4.40;99.90;;;;;;5093437;28;20032;-77
2022/01/15 10:40:43;;;;;;;121.53;45.47;;;4.50;99.90;;;;;;5095002;28;20043;-79
2022/01/15 10:43:11;;;;;;;146.30;49.10;;;4.50;99.90;;;;;;5094481;28;20027;-79
2022/01/15 10:45:53;;;;;;;135.90;52.13;;;4.30;99.90;;;;;;5093562;28;20040;-79
2022/01/15 10:48:29;;;;;;;116.07;44.47;;;4.20;99.90;;;;;;5094869;28;20553;-79
2022/01/15 10:51:06;;;;;;;123.18;48.42;;;4.10;99.90;;;;;;5095048;28;20036;-79
2022/01/15 10:53:37;;;;;;;135.65;52.08;;;3.80;99.90;;;;;;5094616;28;20028;-80
2022/01/15 10:56:09;;;;;;;117.72;43.25;;;3.90;99.90;;;;;;5094609;28;20055;-80
2022/01/15 10:58:35;;;;;;;110.72;44.33;;;3.90;99.90;;;;;;5094330;28;20036;-80
2022/01/15 11:01:01;;;;;;;114.38;43.67;;;3.90;99.90;;;;;;5094363;28;20380;-79
2022/01/15 11:03:44;;;;;;;117.38;46.45;;;4.20;99.90;;;;;;5094267;28;20038;-78
2022/01/15 11:06:10;;;;;;;131.00;45.47;;;4.30;99.90;;;;;;5094311;28;20028;-80
2022/01/15 11:08:38;;;;;;;114.63;43.97;;;4.50;99.90;;;;;;5094090;28;20051;-79
2022/01/15 11:11:11;;;;;;;110.20;42.53;;;4.50;99.90;;;;;;5094040;28;20036;-79
2022/01/15 11:13:41;;;;;;;143.68;49.38;;;4.40;99.90;;;;;;5093963;28;20036;-79
2022/01/15 11:16:12;;;;;;;124.05;45.33;;;4.50;99.90;;;;;;5094041;28;20040;-78
2022/01/15 11:18:40;;;;;;;117.03;42.58;;;4.70;99.90;;;;;;5092870;28;20051;-79
2022/01/15 11:21:08;;;;;;;102.20;41.58;;;4.50;99.90;;;;;;5093918;28;20028;-79
2022/01/15 11:23:35;;;;;;;117.22;43.58;;;4.30;99.90;;;;;;5094124;28;20028;-79
2022/01/15 11:26:05;;;;;;;125.60;47.13;;;4.30;99.90;;;;;;5093719;28;20020;-79
2022/01/15 11:28:33;;;;;;;111.47;42.50;;;4.40;99.90;;;;;;5092322;28;20075;-79
2022/01/15 11:31:11;;;;;;;104.45;39.55;;;4.40;99.90;;;;;;5093726;28;20465;-79
2022/01/15 11:33:58;;;;;;;117.32;42.80;;;4.30;99.90;;;;;;5093926;28;20032;-78
2022/01/15 11:36:41;;;;;;;116.28;44.67;;;4.20;99.90;;;;;;5093747;28;20024;-78
2022/01/15 11:39:12;;;;;;;106.15;41.10;;;4.30;99.90;;;;;;5093530;28;20036;-80
2022/01/15 11:41:39;;;;;;;95.67;39.97;;;4.20;99.90;;;;;;5093567;28;20028;-80
2022/01/15 11:44:09;;;;;;;114.38;43.08;;;4.30;99.90;;;;;;5093892;28;20063;-78
2022/01/15 11:46:53;;;;;;;109.90;43.65;;;4.50;99.90;;;;;;5092600;28;20107;-79
2022/01/15 11:49:33;;;;;;;103.40;40.40;;;4.60;99.90;;;;;;5093370;28;20539;-78
2022/01/15 11:52:14;;;;;;;102.60;41.35;;;4.70;99.90;;;;;;5093455;28;20495;-78
2022/01/15 11:54:54;;;;;;;93.22;39.47;;;5.50;99.90;;;;;;5093501;28;20393;-79
2022/01/15 11:57:24;;;;;;;97.63;39.45;;;5.50;99.90;;;;;;5093008;28;20469;-79
2022/01/15 11:59:51;;;;;;;100.82;41.80;;;5.30;99.90;;;;;;5093422;28;20012;-80
2022/01/15 12:02:31;;;;;;;97.05;41.33;;;5.00;99.90;;;;;;5093428;28;20031;-79
2022/01/15 12:05:14;;;;;;;102.63;39.50;;;5.10;99.90;;;;;;5093454;28;20448;-80
2022/01/15 12:07:41;;;;;;;92.05;36.65;;;6.50;99.90;;;;;;5093332;28;20035;-79
2022/01/15 12:10:13;;;;;;;97.57;42.28;;;6.40;99.90;;;;;;5092759;28;20024;-79
2022/01/15 12:12:52;;;;;;;101.82;39.80;;;6.10;99.90;;;;;;5093353;28;20032;-79
2022/01/15 12:15:28;;;;;;;105.95;39.80;;;5.80;99.90;;;;;;5092197;28;20032;-81
2022/01/15 12:18:00;;;;;;;97.93;41.40;;;5.80;99.90;;;;;;5093126;28;20024;-81
2022/01/15 12:20:28;;;;;;;89.60;37.95;;;5.40;99.90;;;;;;5092894;28;20055;-78
2022/01/15 12:23:16;;;;;;;92.65;38.10;;;5.30;99.90;;;;;;5093206;28;20039;-81
2022/01/15 12:25:44;;;;;;;116.13;43.13;;;5.30;99.90;;;;;;5092485;28;20024;-80
2022/01/15 12:28:13;;;;;;;110.80;42.60;;;5.70;99.90;;;;;;5092883;28;20032;-80
2022/01/15 12:30:47;;;;;;;95.45;39.95;;;5.60;99.90;;;;;;5092903;28;20024;-80
2022/01/15 12:33:15;;;;;;;94.70;39.90;;;5.80;99.90;;;;;;5092955;28;20056;-80
2022/01/15 12:35:43;;;;;;;96.40;38.20;;;6.40;99.90;;;;;;5091475;28;20100;-80
2022/01/15 12:38:15;;;;;;;87.85;37.92;;;8.50;99.90;;;;;;5092887;28;20077;-78
2022/01/15 12:40:49;;;;;;;81.15;35.95;;;9.20;99.90;;;;;;5092642;28;20084;-80
2022/01/15 12:43:31;;;;;;;73.97;32.95;;;9.60;99.90;;;;;;5092901;28;20039;-83
2022/01/15 12:46:06;;;;;;;91.03;38.13;;;9.90;99.90;;;;;;5092507;28;20061;-78
2022/01/15 12:48:34;;;;;;;85.70;35.67;;;9.40;99.90;;;;;;5093004;28;20071;-80
2022/01/15 12:51:10;;;;;;;80.03;34.40;;;9.60;99.90;;;;;;5092807;28;20393;-77
2022/01/15 12:53:39;;;;;;;77.55;33.47;;;9.00;99.90;;;;;;5091489;28;20039;-82